Map

Track Data

SID SEASON NUMBER BASIN SUBBASIN NAME ISO_TIME NATURE LAT LON WMO_WIND WMO_PRES WMO_AGENCY TRACK_TYPE DIST2LAND LANDFALL IFLAG USA_AGENCY USA_ATCF_ID USA_LAT USA_LON USA_RECORD USA_STATUS USA_WIND USA_PRES USA_SSHS USA_R34_NE USA_R34_SE USA_R34_SW USA_R34_NW USA_R50_NE USA_R50_SE USA_R50_SW USA_R50_NW USA_R64_NE USA_R64_SE USA_R64_SW USA_R64_NW USA_POCI USA_ROCI USA_RMW USA_EYE TOKYO_LAT TOKYO_LON TOKYO_GRADE TOKYO_WIND TOKYO_PRES TOKYO_R50_DIR TOKYO_R50_LONG TOKYO_R50_SHORT TOKYO_R30_DIR TOKYO_R30_LONG TOKYO_R30_SHORT TOKYO_LAND CMA_LAT CMA_LON CMA_CAT CMA_WIND CMA_PRES HKO_LAT HKO_LON HKO_CAT HKO_WIND HKO_PRES NEWDELHI_LAT NEWDELHI_LON NEWDELHI_GRADE NEWDELHI_WIND NEWDELHI_PRES NEWDELHI_CI NEWDELHI_DP NEWDELHI_POCI REUNION_LAT REUNION_LON REUNION_TYPE REUNION_WIND REUNION_PRES REUNION_TNUM REUNION_CI REUNION_RMW REUNION_R34_NE REUNION_R34_SE REUNION_R34_SW REUNION_R34_NW REUNION_R50_NE REUNION_R50_SE REUNION_R50_SW REUNION_R50_NW REUNION_R64_NE REUNION_R64_SE REUNION_R64_SW REUNION_R64_NW BOM_LAT BOM_LON BOM_TYPE BOM_WIND BOM_PRES BOM_TNUM BOM_CI BOM_RMW BOM_R34_NE BOM_R34_SE BOM_R34_SW BOM_R34_NW BOM_R50_NE BOM_R50_SE BOM_R50_SW BOM_R50_NW BOM_R64_NE BOM_R64_SE BOM_R64_SW BOM_R64_NW BOM_ROCI BOM_POCI BOM_EYE BOM_POS_METHOD BOM_PRES_METHOD NADI_LAT NADI_LON NADI_CAT NADI_WIND NADI_PRES WELLINGTON_LAT WELLINGTON_LON WELLINGTON_WIND WELLINGTON_PRES DS824_LAT DS824_LON DS824_STAGE DS824_WIND DS824_PRES TD9636_LAT TD9636_LON TD9636_STAGE TD9636_WIND TD9636_PRES TD9635_LAT TD9635_LON TD9635_WIND TD9635_PRES TD9635_ROCI NEUMANN_LAT NEUMANN_LON NEUMANN_CLASS NEUMANN_WIND NEUMANN_PRES MLC_LAT MLC_LON MLC_CLASS MLC_WIND MLC_PRES USA_GUST BOM_GUST BOM_GUST_PER REUNION_GUST REUNION_GUST_PER USA_SEAHGT USA_SEARAD_NE USA_SEARAD_SE USA_SEARAD_SW USA_SEARAD_NW STORM_SPEED STORM_DIR
1911070S19059 1911 23 SI MM NOT_NAMED 1911-03-11 00:00:00 TS -18.8000 58.6000 main 173 158 _________O____ -1 -18.8000 58.6000 TC 3 246
1911070S19059 1911 23 SI MM NOT_NAMED 1911-03-11 03:00:00 TS -18.8625 58.4475 main 152 148 _________P____ -1 -18.8625 58.4475 TC 3 250
1911070S19059 1911 23 SI MM NOT_NAMED 1911-03-11 06:00:00 TS -18.9000 58.3000 main 148 144 _________O____ -1 -18.9000 58.3000 TC 3 262
1911070S19059 1911 23 SI MM NOT_NAMED 1911-03-11 09:00:00 TS -18.9000 58.1575 main 144 137 _________P____ -1 -18.9000 58.1575 TC 3 270
1911070S19059 1911 23 SI MM NOT_NAMED 1911-03-11 12:00:00 TS -18.9000 58.0000 main 137 134 _________O____ -1 -18.9000 58.0000 TC 3 261
1911070S19059 1911 23 SI MM NOT_NAMED 1911-03-11 15:00:00 TS -18.9500 57.8075 main 134 123 _________P____ -1 -18.9500 57.8075 TC 4 255
1911070S19059 1911 23 SI MM NOT_NAMED 1911-03-11 18:00:00 TS -19.0000 57.6000 main 123 123 _________O____ -1 -19.0000 57.6000 TC 4 263
1911070S19059 1911 23 SI MM NOT_NAMED 1911-03-11 21:00:00 TS -19.0000 57.3999 main 123 123 _________P____ -1 -19.0000 57.3999 TC 4 270
1911070S19059 1911 23 SI MM NOT_NAMED 1911-03-12 00:00:00 TS -19.0000 57.2000 main 126 126 _________O____ -1 -19.0000 57.2000 TC 4 264
1911070S19059 1911 23 SI MM NOT_NAMED 1911-03-12 03:00:00 TS -19.0425 57.0000 main 133 123 _________P____ -1 -19.0425 57.0000 TC 4 255
1911070S19059 1911 23 SI MM NOT_NAMED 1911-03-12 06:00:00 TS -19.1000 56.8000 main 133 133 _________O____ -1 -19.1000 56.8000 TC 4 253
1911070S19059 1911 23 SI MM NOT_NAMED 1911-03-12 09:00:00 TS -19.1575 56.6000 main 137 137 _________P____ -1 -19.1575 56.6000 TC 4 255
1911070S19059 1911 23 SI MM NOT_NAMED 1911-03-12 12:00:00 TS -19.2000 56.4000 main 152 152 _________O____ -1 -19.2000 56.4000 TC 4 264
1911070S19059 1911 23 SI MM NOT_NAMED 1911-03-12 15:00:00 TS -19.2000 56.1999 main 169 169 _________P____ -1 -19.2000 56.1999 TC 4 270
1911070S19059 1911 23 SI MM NOT_NAMED 1911-03-12 18:00:00 TS -19.2000 56.0000 main 186 186 _________O____ -1 -19.2000 56.0000 TC 4 264
1911070S19059 1911 23 SI MM NOT_NAMED 1911-03-12 21:00:00 TS -19.2425 55.8000 main 201 190 _________P____ -1 -19.2425 55.8000 TC 4 255
1911070S19059 1911 23 SI MM NOT_NAMED 1911-03-13 00:00:00 TS -19.3000 55.6000 main 190 190 _________O____ -1 -19.3000 55.6000 TC 4 255
1911070S19059 1911 23 SI MM NOT_NAMED 1911-03-13 03:00:00 TS -19.3425 55.4000 main 190 178 _________P____ -1 -19.3425 55.4000 TC 4 255
1911070S19059 1911 23 SI MM NOT_NAMED 1911-03-13 06:00:00 TS -19.4000 55.2000 main 179 169 _________O____ -1 -19.4000 55.2000 TC 4 247
1911070S19059 1911 23 SI MM NOT_NAMED 1911-03-13 09:00:00 TS -19.5000 55.0000 main 170 162 _________P____ -1 -19.5000 55.0000 TC 4 242
1911070S19059 1911 23 SI MM NOT_NAMED 1911-03-13 12:00:00 TS -19.6000 54.8000 main 165 162 _________O____ -1 -19.6000 54.8000 TC 4 247
1911070S19059 1911 23 SI MM NOT_NAMED 1911-03-13 15:00:00 TS -19.6575 54.6000 main 162 162 _________P____ -1 -19.6575 54.6000 TC 4 255
1911070S19059 1911 23 SI MM NOT_NAMED 1911-03-13 18:00:00 TS -19.7000 54.4000 main 173 173 _________O____ -1 -19.7000 54.4000 TC 4 256
1911070S19059 1911 23 SI MM NOT_NAMED 1911-03-13 21:00:00 TS -19.7500 54.1925 main 185 176 _________P____ -1 -19.7500 54.1925 TC 4 255
1911070S19059 1911 23 SI MM NOT_NAMED 1911-03-14 00:00:00 TS -19.8000 54.0000 main 190 190 _________O____ -1 -19.8000 54.0000 TC 3 255
1911070S19059 1911 23 SI MM NOT_NAMED 1911-03-14 03:00:00 TS -19.8425 53.8350 main 205 198 _________P____ -1 -19.8425 53.8350 TC 3 250
1911070S19059 1911 23 SI MM NOT_NAMED 1911-03-14 06:00:00 TS -19.9000 53.7000 main 205 205 _________O____ -1 -19.9000 53.7000 TC 3 236
1911070S19059 1911 23 SI MM NOT_NAMED 1911-03-14 09:00:00 TS -19.9925 53.5925 main 207 207 _________P____ -1 -19.9925 53.5925 TC 3 224
1911070S19059 1911 23 SI MM NOT_NAMED 1911-03-14 12:00:00 TS -20.1000 53.5000 main 209 203 _________O____ -1 -20.1000 53.5000 TC 3 219
1911070S19059 1911 23 SI MM NOT_NAMED 1911-03-14 15:00:00 TS -20.2075 53.4075 main 212 207 _________P____ -1 -20.2075 53.4075 TC 3 224
1911070S19059 1911 23 SI MM NOT_NAMED 1911-03-14 18:00:00 TS -20.3000 53.3000 main 216 216 _________O____ -1 -20.3000 53.3000 TC 3 240
1911070S19059 1911 23 SI MM NOT_NAMED 1911-03-14 21:00:00 TS -20.3425 53.1574 main 226 226 _________P____ -1 -20.3425 53.1574 TC 3 250
1911070S19059 1911 23 SI MM NOT_NAMED 1911-03-15 00:00:00 TS -20.4000 53.0000 main 241 241 _________O____ -1 -20.4000 53.0000 TC 3 236
1911070S19059 1911 23 SI MM NOT_NAMED 1911-03-15 03:00:00 TS -20.5350 52.8500 main 248 248 _________P____ -1 -20.5350 52.8500 TC 4 223
1911070S19059 1911 23 SI MM NOT_NAMED 1911-03-15 06:00:00 TS -20.7000 52.7000 main 263 263 _________O____ -1 -20.7000 52.7000 TC 4 224
1911070S19059 1911 23 SI MM NOT_NAMED 1911-03-15 09:00:00 TS -20.8425 52.5350 main 282 281 _________P____ -1 -20.8425 52.5350 TC 4 223
1911070S19059 1911 23 SI MM NOT_NAMED 1911-03-15 12:00:00 TS -21.0000 52.4000 main 290 290 _________O____ -1 -21.0000 52.4000 TC 4 210
1911070S19059 1911 23 SI MM NOT_NAMED 1911-03-15 15:00:00 TS -21.1925 52.3200 main 300 300 _________P____ -1 -21.1925 52.3200 TC 4 193
1911070S19059 1911 23 SI MM NOT_NAMED 1911-03-15 18:00:00 TS -21.4000 52.3000 main 302 302 _________O____ -1 -21.4000 52.3000 TC 4 0
1911070S19059 1911 23 SI MM NOT_NAMED 1911-03-15 21:00:00 TS -21.6075 52.3200 main 305 297 _________P____ -1 -21.6075 52.3200 TC 4 167
1911070S19059 1911 23 SI MM NOT_NAMED 1911-03-16 00:00:00 TS -21.8000 52.4000 main 300 293 _________O____ -1 -21.8000 52.4000 TC 4 151
1911070S19059 1911 23 SI MM NOT_NAMED 1911-03-16 03:00:00 TS -21.9650 52.5350 main 296 281 _________P____ -1 -21.9650 52.5350 TC 4 137
1911070S19059 1911 23 SI MM NOT_NAMED 1911-03-16 06:00:00 TS -22.1000 52.7000 main 281 272 _________O____ -1 -22.1000 52.7000 TC 4 130
1911070S19059 1911 23 SI MM NOT_NAMED 1911-03-16 09:00:00 TS -22.2075 52.8500 main 267 262 _________P____ -1 -22.2075 52.8500 TC 3 126
1911070S19059 1911 23 SI MM NOT_NAMED 1911-03-16 12:00:00 TS -22.3000 53.0000 main 262 253 _________O____ -1 -22.3000 53.0000 TC 3 126
1911070S19059 1911 23 SI MM NOT_NAMED 1911-03-16 15:00:00 TS -22.4075 53.1500 main 249 246 _________P____ -1 -22.4075 53.1500 TC 3 126
1911070S19059 1911 23 SI MM NOT_NAMED 1911-03-16 18:00:00 TS -22.5000 53.3000 main 246 237 _________O____ -1 -22.5000 53.3000 TC 3 117
1911070S19059 1911 23 SI MM NOT_NAMED 1911-03-16 21:00:00 TS -22.5500 53.4501 main 229 227 _________P____ -1 -22.5500 53.4501 TC 3 110
1911070S19059 1911 23 SI MM NOT_NAMED 1911-03-17 00:00:00 TS -22.6000 53.6000 main 227 219 _________O____ -1 -22.6000 53.6000 TC 3 119
1911070S19059 1911 23 SI MM NOT_NAMED 1911-03-17 03:00:00 TS -22.7000 53.7425 main 227 219 _________P____ -1 -22.7000 53.7425 TC 3 126
1911070S19059 1911 23 SI MM NOT_NAMED 1911-03-17 06:00:00 TS -22.8000 53.9000 main 221 208 _________O____ -1 -22.8000 53.9000 TC 4 116
1911070S19059 1911 23 SI MM NOT_NAMED 1911-03-17 09:00:00 TS -22.8575 54.1000 main 217 206 _________P____ -1 -22.8575 54.1000 TC 4 105
1911070S19059 1911 23 SI MM NOT_NAMED 1911-03-17 12:00:00 TS -22.9000 54.3000 main 206 201 _________O____ -1 -22.9000 54.3000 TC 3 105
1911070S19059 1911 23 SI MM NOT_NAMED 1911-03-17 15:00:00 TS -22.9424 54.4501 main 196 196 _________P____ -1 -22.9424 54.4501 TC 3 110
1911070S19059 1911 23 SI MM NOT_NAMED 1911-03-17 18:00:00 TS -23.0000 54.6000 main 203 199 _________O____ -1 -23.0000 54.6000 TC 3 117
1911070S19059 1911 23 SI MM NOT_NAMED 1911-03-17 21:00:00 TS -23.0924 54.7775 main 207 203 _________P____ -1 -23.0924 54.7775 TC 4 119
1911070S19059 1911 23 SI MM NOT_NAMED 1911-03-18 00:00:00 TS -23.2000 55.0000 main 210 207 _________O____ -1 -23.2000 55.0000 TC 5 115
1911070S19059 1911 23 SI MM NOT_NAMED 1911-03-18 03:00:00 TS -23.3075 55.2850 main 214 213 _________P____ -1 -23.3075 55.2850 TC 6 110
1911070S19059 1911 23 SI MM NOT_NAMED 1911-03-18 06:00:00 TS -23.4000 55.6000 main 223 223 _________O____ -1 -23.4000 55.6000 TC 6 105
1911070S19059 1911 23 SI MM NOT_NAMED 1911-03-18 09:00:00 TS -23.4575 55.9151 main 236 236 _________P____ -1 -23.4575 55.9151 TC 6 100
1911070S19059 1911 23 SI MM NOT_NAMED 1911-03-18 12:00:00 TS -23.5000 56.2000 main 242 242 _________O____ -1 -23.5000 56.2000 TC 5 100
1911070S19059 1911 23 SI MM NOT_NAMED 1911-03-18 15:00:00 TS -23.5424 56.4151 main 248 248 _________P____ -1 -23.5424 56.4151 TC 4 105
1911070S19059 1911 23 SI MM NOT_NAMED 1911-03-18 18:00:00 TS -23.6000 56.6000 main 266 266 _________O____ -1 -23.6000 56.6000 TC 4 113
1911070S19059 1911 23 SI MM NOT_NAMED 1911-03-18 21:00:00 TS -23.6901 56.7949 main 285 285 _________P____ -1 -23.6901 56.7949 TC 4 119
1911070S19059 1911 23 SI MM NOT_NAMED 1911-03-19 00:00:00 TS -23.8000 57.0000 main 304 _________O____ -1 -23.8000 57.0000 TC 4 120

About IBTrACS Database

This database is a web-friendly format of International Best Track Archive for Climate Stewardship (IBTrACS), a global best track data archive curated by NOAA dating back to 1842.

Updated: 2021-12-01